sensor_id;sensor_type;location;lat;lon;timestamp;temperature;humidity
21255;DHT22;10785;50.674;17.954;2023-02-28T00:01:16;0.50;1.00
21255;DHT22;10785;50.674;17.954;2023-02-28T00:03:45;0.60;1.00
21255;DHT22;10785;50.674;17.954;2023-02-28T00:06:14;0.60;1.00
21255;DHT22;10785;50.674;17.954;2023-02-28T00:08:42;0.50;1.00
21255;DHT22;10785;50.674;17.954;2023-02-28T00:11:12;0.50;1.00
21255;DHT22;10785;50.674;17.954;2023-02-28T00:13:43;0.50;1.00
21255;DHT22;10785;50.674;17.954;2023-02-28T00:16:17;0.50;1.00
21255;DHT22;10785;50.674;17.954;2023-02-28T00:18:47;0.40;1.00
21255;DHT22;10785;50.674;17.954;2023-02-28T00:21:17;0.50;1.00
21255;DHT22;10785;50.674;17.954;2023-02-28T00:23:46;0.50;1.00
21255;DHT22;10785;50.674;17.954;2023-02-28T00:26:15;0.50;1.00
21255;DHT22;10785;50.674;17.954;2023-02-28T00:28:45;0.50;1.00
21255;DHT22;10785;50.674;17.954;2023-02-28T00:31:14;0.50;1.00
21255;DHT22;10785;50.674;17.954;2023-02-28T00:33:44;0.40;1.00
21255;DHT22;10785;50.674;17.954;2023-02-28T00:36:14;0.40;1.00
21255;DHT22;10785;50.674;17.954;2023-02-28T00:38:43;0.40;1.00
21255;DHT22;10785;50.674;17.954;2023-02-28T00:41:11;0.40;1.00
21255;DHT22;10785;50.674;17.954;2023-02-28T00:43:40;0.40;1.00
21255;DHT22;10785;50.674;17.954;2023-02-28T00:46:10;0.40;1.00
21255;DHT22;10785;50.674;17.954;2023-02-28T00:48:39;0.40;1.00
21255;DHT22;10785;50.674;17.954;2023-02-28T00:51:09;0.40;1.00
21255;DHT22;10785;50.674;17.954;2023-02-28T00:53:38;0.40;1.00
21255;DHT22;10785;50.674;17.954;2023-02-28T00:56:07;0.40;1.00
21255;DHT22;10785;50.674;17.954;2023-02-28T00:58:35;0.40;1.00
21255;DHT22;10785;50.674;17.954;2023-02-28T01:01:04;0.40;1.00
21255;DHT22;10785;50.674;17.954;2023-02-28T01:03:33;0.30;1.00
21255;DHT22;10785;50.674;17.954;2023-02-28T01:06:01;0.30;1.00
21255;DHT22;10785;50.674;17.954;2023-02-28T01:08:31;0.30;1.00
21255;DHT22;10785;50.674;17.954;2023-02-28T01:11:07;0.30;1.00
21255;DHT22;10785;50.674;17.954;2023-02-28T01:13:36;0.30;1.00
21255;DHT22;10785;50.674;17.954;2023-02-28T01:16:06;0.30;1.00
21255;DHT22;10785;50.674;17.954;2023-02-28T01:18:35;0.30;1.00
21255;DHT22;10785;50.674;17.954;2023-02-28T01:21:05;0.20;1.00
21255;DHT22;10785;50.674;17.954;2023-02-28T01:23:35;0.20;1.00
21255;DHT22;10785;50.674;17.954;2023-02-28T01:26:05;0.30;1.00
21255;DHT22;10785;50.674;17.954;2023-02-28T01:28:34;0.20;1.00
21255;DHT22;10785;50.674;17.954;2023-02-28T01:31:03;0.20;1.00
21255;DHT22;10785;50.674;17.954;2023-02-28T01:33:32;0.20;1.00
21255;DHT22;10785;50.674;17.954;2023-02-28T01:36:02;0.10;1.00
21255;DHT22;10785;50.674;17.954;2023-02-28T01:38:31;0.10;1.00
21255;DHT22;10785;50.674;17.954;2023-02-28T01:41:01;0.10;1.00
21255;DHT22;10785;50.674;17.954;2023-02-28T01:43:31;0.20;1.00
21255;DHT22;10785;50.674;17.954;2023-02-28T01:46:00;0.20;1.00
21255;DHT22;10785;50.674;17.954;2023-02-28T01:48:32;0.10;1.00
21255;DHT22;10785;50.674;17.954;2023-02-28T01:51:06;0.10;1.00
21255;DHT22;10785;50.674;17.954;2023-02-28T01:53:44;0.00;1.00
21255;DHT22;10785;50.674;17.954;2023-02-28T01:56:18;-0.10;1.00
21255;DHT22;10785;50.674;17.954;2023-02-28T01:58:49;-0.10;1.00
21255;DHT22;10785;50.674;17.954;2023-02-28T02:01:19;-0.20;1.00
21255;DHT22;10785;50.674;17.954;2023-02-28T02:03:51;-0.20;1.00
21255;DHT22;10785;50.674;17.954;2023-02-28T02:06:27;-0.30;1.00
21255;DHT22;10785;50.674;17.954;2023-02-28T02:09:22;-0.30;1.00
21255;DHT22;10785;50.674;17.954;2023-02-28T02:11:55;-0.30;1.00
21255;DHT22;10785;50.674;17.954;2023-02-28T02:14:48;-0.30;1.00
21255;DHT22;10785;50.674;17.954;2023-02-28T02:17:28;-0.30;1.00
21255;DHT22;10785;50.674;17.954;2023-02-28T02:20:38;-0.40;1.00
21255;DHT22;10785;50.674;17.954;2023-02-28T02:26:57;-0.40;1.00
21255;DHT22;10785;50.674;17.954;2023-02-28T02:29:50;-0.50;1.00
21255;DHT22;10785;50.674;17.954;2023-02-28T02:32:49;-0.50;1.00
21255;DHT22;10785;50.674;17.954;2023-02-28T02:35:29;-0.60;1.00
21255;DHT22;10785;50.674;17.954;2023-02-28T02:38:05;-0.60;1.00
21255;DHT22;10785;50.674;17.954;2023-02-28T02:40:38;-0.70;1.00
21255;DHT22;10785;50.674;17.954;2023-02-28T02:43:15;-0.70;1.00
21255;DHT22;10785;50.674;17.954;2023-02-28T02:45:47;-0.80;1.00
21255;DHT22;10785;50.674;17.954;2023-02-28T02:48:19;-0.90;1.00
21255;DHT22;10785;50.674;17.954;2023-02-28T02:50:54;-0.90;1.00
21255;DHT22;10785;50.674;17.954;2023-02-28T02:53:27;-1.00;1.00
21255;DHT22;10785;50.674;17.954;2023-02-28T02:56:01;-1.00;1.00
21255;DHT22;10785;50.674;17.954;2023-02-28T02:58:36;-1.10;1.00
21255;DHT22;10785;50.674;17.954;2023-02-28T03:01:12;-1.10;1.00
21255;DHT22;10785;50.674;17.954;2023-02-28T03:03:43;-1.10;1.00
21255;DHT22;10785;50.674;17.954;2023-02-28T03:06:15;-1.10;1.00
21255;DHT22;10785;50.674;17.954;2023-02-28T03:08:43;-1.20;1.00
21255;DHT22;10785;50.674;17.954;2023-02-28T03:11:13;-1.20;1.00
21255;DHT22;10785;50.674;17.954;2023-02-28T03:13:59;-1.30;1.00
21255;DHT22;10785;50.674;17.954;2023-02-28T03:16:54;-1.30;1.00
21255;DHT22;10785;50.674;17.954;2023-02-28T03:19:45;-1.40;1.00
21255;DHT22;10785;50.674;17.954;2023-02-28T03:22:30;-1.40;1.00
21255;DHT22;10785;50.674;17.954;2023-02-28T03:25:07;-1.40;1.00
21255;DHT22;10785;50.674;17.954;2023-02-28T03:27:40;-1.50;1.00
21255;DHT22;10785;50.674;17.954;2023-02-28T03:30:14;-1.60;1.00
21255;DHT22;10785;50.674;17.954;2023-02-28T03:32:54;-1.60;1.00
21255;DHT22;10785;50.674;17.954;2023-02-28T03:35:28;-1.60;1.00
21255;DHT22;10785;50.674;17.954;2023-02-28T03:38:06;-1.60;1.00
21255;DHT22;10785;50.674;17.954;2023-02-28T03:40:37;-1.70;1.00
21255;DHT22;10785;50.674;17.954;2023-02-28T03:43:10;-1.70;1.00
21255;DHT22;10785;50.674;17.954;2023-02-28T03:45:43;-1.70;1.00
21255;DHT22;10785;50.674;17.954;2023-02-28T04:20:18;-1.90;1.00
21255;DHT22;10785;50.674;17.954;2023-02-28T04:22:47;-1.90;1.00
21255;DHT22;10785;50.674;17.954;2023-02-28T04:25:16;-1.90;1.00
21255;DHT22;10785;50.674;17.954;2023-02-28T04:27:44;-1.90;1.00
21255;DHT22;10785;50.674;17.954;2023-02-28T04:30:13;-1.90;1.00
21255;DHT22;10785;50.674;17.954;2023-02-28T04:32:42;-1.90;1.00
21255;DHT22;10785;50.674;17.954;2023-02-28T04:35:10;-1.90;1.00
21255;DHT22;10785;50.674;17.954;2023-02-28T04:37:40;-1.90;1.00
21255;DHT22;10785;50.674;17.954;2023-02-28T04:40:10;-1.90;1.00
21255;DHT22;10785;50.674;17.954;2023-02-28T04:42:38;-1.90;1.00
21255;DHT22;10785;50.674;17.954;2023-02-28T04:45:08;-1.80;1.00
21255;DHT22;10785;50.674;17.954;2023-02-28T04:47:38;-1.80;1.00
21255;DHT22;10785;50.674;17.954;2023-02-28T04:50:07;-1.90;1.00
21255;DHT22;10785;50.674;17.954;2023-02-28T04:52:36;-1.80;1.00
21255;DHT22;10785;50.674;17.954;2023-02-28T04:55:07;-1.80;1.00
21255;DHT22;10785;50.674;17.954;2023-02-28T04:57:36;-1.80;1.00
21255;DHT22;10785;50.674;17.954;2023-02-28T05:00:05;-1.80;1.00
21255;DHT22;10785;50.674;17.954;2023-02-28T05:02:38;-1.80;1.00
21255;DHT22;10785;50.674;17.954;2023-02-28T05:05:07;-1.80;1.00
21255;DHT22;10785;50.674;17.954;2023-02-28T05:07:36;-1.90;1.00
21255;DHT22;10785;50.674;17.954;2023-02-28T05:10:07;-1.80;1.00
21255;DHT22;10785;50.674;17.954;2023-02-28T05:12:36;-1.80;1.00
21255;DHT22;10785;50.674;17.954;2023-02-28T05:15:07;-1.90;1.00
21255;DHT22;10785;50.674;17.954;2023-02-28T05:17:36;-1.90;1.00
21255;DHT22;10785;50.674;17.954;2023-02-28T05:20:06;-1.80;1.00
21255;DHT22;10785;50.674;17.954;2023-02-28T05:22:42;-1.80;1.00
21255;DHT22;10785;50.674;17.954;2023-02-28T05:25:16;-1.80;1.00
21255;DHT22;10785;50.674;17.954;2023-02-28T05:27:45;-1.80;1.00
21255;DHT22;10785;50.674;17.954;2023-02-28T05:30:14;-1.80;1.00
21255;DHT22;10785;50.674;17.954;2023-02-28T05:32:42;-1.90;1.00
21255;DHT22;10785;50.674;17.954;2023-02-28T05:35:11;-1.90;1.00
21255;DHT22;10785;50.674;17.954;2023-02-28T05:37:40;-1.90;1.00
21255;DHT22;10785;50.674;17.954;2023-02-28T05:40:09;-1.90;1.00
21255;DHT22;10785;50.674;17.954;2023-02-28T05:42:40;-1.90;1.00
21255;DHT22;10785;50.674;17.954;2023-02-28T05:45:09;-1.90;1.00
21255;DHT22;10785;50.674;17.954;2023-02-28T05:47:41;-1.90;1.00
21255;DHT22;10785;50.674;17.954;2023-02-28T05:50:10;-2.00;1.00
21255;DHT22;10785;50.674;17.954;2023-02-28T05:52:39;-2.00;1.00
21255;DHT22;10785;50.674;17.954;2023-02-28T05:55:08;-2.00;1.00
21255;DHT22;10785;50.674;17.954;2023-02-28T05:57:39;-2.00;1.00
21255;DHT22;10785;50.674;17.954;2023-02-28T06:00:09;-2.00;1.00
21255;DHT22;10785;50.674;17.954;2023-02-28T06:02:40;-2.00;1.00
21255;DHT22;10785;50.674;17.954;2023-02-28T06:05:13;-1.90;1.00
21255;DHT22;10785;50.674;17.954;2023-02-28T06:07:43;-1.90;1.00
21255;DHT22;10785;50.674;17.954;2023-02-28T06:10:12;-1.90;1.00
21255;DHT22;10785;50.674;17.954;2023-02-28T06:12:42;-1.80;1.00
21255;DHT22;10785;50.674;17.954;2023-02-28T06:15:12;-1.80;1.00
21255;DHT22;10785;50.674;17.954;2023-02-28T06:17:42;-1.70;1.00
21255;DHT22;10785;50.674;17.954;2023-02-28T06:20:11;-1.60;1.00
21255;DHT22;10785;50.674;17.954;2023-02-28T06:22:40;-1.60;1.00
21255;DHT22;10785;50.674;17.954;2023-02-28T06:25:10;-1.50;1.00
21255;DHT22;10785;50.674;17.954;2023-02-28T06:27:39;-1.50;1.00
21255;DHT22;10785;50.674;17.954;2023-02-28T06:30:10;-1.40;1.00
21255;DHT22;10785;50.674;17.954;2023-02-28T06:32:39;-1.30;1.00
21255;DHT22;10785;50.674;17.954;2023-02-28T06:35:08;-1.20;1.00
21255;DHT22;10785;50.674;17.954;2023-02-28T06:37:37;-1.20;1.00
21255;DHT22;10785;50.674;17.954;2023-02-28T06:40:09;-1.20;1.00
21255;DHT22;10785;50.674;17.954;2023-02-28T06:42:38;-1.10;1.00
21255;DHT22;10785;50.674;17.954;2023-02-28T06:45:09;-1.00;1.00
21255;DHT22;10785;50.674;17.954;2023-02-28T06:47:39;-1.00;1.00
21255;DHT22;10785;50.674;17.954;2023-02-28T06:50:10;-0.90;1.00
21255;DHT22;10785;50.674;17.954;2023-02-28T06:52:39;-0.80;1.00
21255;DHT22;10785;50.674;17.954;2023-02-28T06:55:08;-0.70;1.00
21255;DHT22;10785;50.674;17.954;2023-02-28T07:26:39;-0.10;1.00
21255;DHT22;10785;50.674;17.954;2023-02-28T07:29:08;-0.20;1.00
21255;DHT22;10785;50.674;17.954;2023-02-28T07:31:36;-0.10;1.00
21255;DHT22;10785;50.674;17.954;2023-02-28T07:34:05;0.00;1.00
21255;DHT22;10785;50.674;17.954;2023-02-28T07:36:34;0.00;1.00
21255;DHT22;10785;50.674;17.954;2023-02-28T07:39:02;0.10;1.00
21255;DHT22;10785;50.674;17.954;2023-02-28T07:41:31;0.10;1.00
21255;DHT22;10785;50.674;17.954;2023-02-28T07:44:02;0.20;1.00
21255;DHT22;10785;50.674;17.954;2023-02-28T07:46:31;0.20;1.00
21255;DHT22;10785;50.674;17.954;2023-02-28T07:49:03;0.20;1.00
21255;DHT22;10785;50.674;17.954;2023-02-28T07:51:32;0.40;1.00
21255;DHT22;10785;50.674;17.954;2023-02-28T07:54:01;0.40;1.00
21255;DHT22;10785;50.674;17.954;2023-02-28T07:56:29;0.50;1.00
21255;DHT22;10785;50.674;17.954;2023-02-28T07:58:59;0.60;1.00
21255;DHT22;10785;50.674;17.954;2023-02-28T08:01:30;0.60;1.00
21255;DHT22;10785;50.674;17.954;2023-02-28T08:03:59;0.70;1.00
21255;DHT22;10785;50.674;17.954;2023-02-28T08:06:27;0.90;1.00
21255;DHT22;10785;50.674;17.954;2023-02-28T08:09:03;1.00;1.00
21255;DHT22;10785;50.674;17.954;2023-02-28T08:11:31;1.20;1.00
21255;DHT22;10785;50.674;17.954;2023-02-28T08:14:00;1.30;1.00
21255;DHT22;10785;50.674;17.954;2023-02-28T08:16:30;1.30;1.00
21255;DHT22;10785;50.674;17.954;2023-02-28T08:18:59;1.40;1.00
21255;DHT22;10785;50.674;17.954;2023-02-28T08:21:27;1.40;1.00
21255;DHT22;10785;50.674;17.954;2023-02-28T08:24:21;1.60;1.00
21255;DHT22;10785;50.674;17.954;2023-02-28T08:26:50;1.60;1.00
21255;DHT22;10785;50.674;17.954;2023-02-28T08:29:19;1.70;1.00
21255;DHT22;10785;50.674;17.954;2023-02-28T08:31:49;1.80;1.00
21255;DHT22;10785;50.674;17.954;2023-02-28T08:34:17;1.90;1.00
21255;DHT22;10785;50.674;17.954;2023-02-28T08:36:46;1.90;1.00
21255;DHT22;10785;50.674;17.954;2023-02-28T08:39:15;2.00;1.00
21255;DHT22;10785;50.674;17.954;2023-02-28T08:41:43;2.00;1.00
21255;DHT22;10785;50.674;17.954;2023-02-28T08:44:17;2.00;1.00
21255;DHT22;10785;50.674;17.954;2023-02-28T08:46:45;1.90;1.00
21255;DHT22;10785;50.674;17.954;2023-02-28T08:49:15;2.00;1.00
21255;DHT22;10785;50.674;17.954;2023-02-28T08:51:44;2.00;1.00
21255;DHT22;10785;50.674;17.954;2023-02-28T08:54:12;2.00;1.00
21255;DHT22;10785;50.674;17.954;2023-02-28T08:56:43;2.00;1.00
21255;DHT22;10785;50.674;17.954;2023-02-28T08:59:12;1.90;1.00
21255;DHT22;10785;50.674;17.954;2023-02-28T09:01:41;2.00;1.00
21255;DHT22;10785;50.674;17.954;2023-02-28T09:04:10;2.00;1.00
21255;DHT22;10785;50.674;17.954;2023-02-28T09:06:46;2.10;1.00
21255;DHT22;10785;50.674;17.954;2023-02-28T09:09:16;2.10;1.00
21255;DHT22;10785;50.674;17.954;2023-02-28T09:11:44;2.00;1.00
21255;DHT22;10785;50.674;17.954;2023-02-28T09:14:13;2.10;1.00
21255;DHT22;10785;50.674;17.954;2023-02-28T09:16:42;2.10;1.00
21255;DHT22;10785;50.674;17.954;2023-02-28T09:19:11;2.20;1.00
21255;DHT22;10785;50.674;17.954;2023-02-28T09:21:39;2.30;1.00
21255;DHT22;10785;50.674;17.954;2023-02-28T09:24:13;2.50;1.00
21255;DHT22;10785;50.674;17.954;2023-02-28T09:26:42;2.60;1.00
21255;DHT22;10785;50.674;17.954;2023-02-28T09:29:29;2.70;1.00
21255;DHT22;10785;50.674;17.954;2023-02-28T09:31:58;2.80;1.00
21255;DHT22;10785;50.674;17.954;2023-02-28T09:34:27;2.70;1.00
21255;DHT22;10785;50.674;17.954;2023-02-28T09:36:58;2.90;1.00
21255;DHT22;10785;50.674;17.954;2023-02-28T09:39:28;2.90;1.00
21255;DHT22;10785;50.674;17.954;2023-02-28T09:41:57;2.90;1.00
21255;DHT22;10785;50.674;17.954;2023-02-28T09:44:30;2.90;1.00
21255;DHT22;10785;50.674;17.954;2023-02-28T09:47:04;3.10;1.00
21255;DHT22;10785;50.674;17.954;2023-02-28T09:49:39;3.20;1.00
21255;DHT22;10785;50.674;17.954;2023-02-28T09:52:12;3.20;1.00
21255;DHT22;10785;50.674;17.954;2023-02-28T09:54:43;3.20;1.00
21255;DHT22;10785;50.674;17.954;2023-02-28T09:57:19;3.10;1.00
21255;DHT22;10785;50.674;17.954;2023-02-28T10:00:02;3.00;1.00
21255;DHT22;10785;50.674;17.954;2023-02-28T10:02:48;2.80;1.00
21255;DHT22;10785;50.674;17.954;2023-02-28T10:05:23;2.60;1.00
21255;DHT22;10785;50.674;17.954;2023-02-28T10:08:00;2.70;1.00
21255;DHT22;10785;50.674;17.954;2023-02-28T10:10:37;2.70;1.00
21255;DHT22;10785;50.674;17.954;2023-02-28T10:13:14;2.70;1.00
21255;DHT22;10785;50.674;17.954;2023-02-28T10:15:45;2.60;1.00
21255;DHT22;10785;50.674;17.954;2023-02-28T10:18:21;2.70;1.00
21255;DHT22;10785;50.674;17.954;2023-02-28T10:20:51;2.60;1.00
21255;DHT22;10785;50.674;17.954;2023-02-28T10:23:24;2.80;1.00
21255;DHT22;10785;50.674;17.954;2023-02-28T10:25:59;2.80;1.00
21255;DHT22;10785;50.674;17.954;2023-02-28T10:28:29;3.10;1.00
21255;DHT22;10785;50.674;17.954;2023-02-28T10:30:59;3.20;1.00
21255;DHT22;10785;50.674;17.954;2023-02-28T10:33:30;3.20;1.00
21255;DHT22;10785;50.674;17.954;2023-02-28T10:36:02;3.00;1.00
21255;DHT22;10785;50.674;17.954;2023-02-28T10:38:35;3.00;1.00
21255;DHT22;10785;50.674;17.954;2023-02-28T10:41:08;3.20;1.00
21255;DHT22;10785;50.674;17.954;2023-02-28T10:43:38;3.30;1.00
21255;DHT22;10785;50.674;17.954;2023-02-28T10:46:13;3.40;1.00
21255;DHT22;10785;50.674;17.954;2023-02-28T10:49:02;3.60;1.00
21255;DHT22;10785;50.674;17.954;2023-02-28T10:51:37;3.20;1.00
21255;DHT22;10785;50.674;17.954;2023-02-28T10:54:15;3.30;1.00
21255;DHT22;10785;50.674;17.954;2023-02-28T10:56:45;3.60;1.00
21255;DHT22;10785;50.674;17.954;2023-02-28T10:59:28;3.60;1.00
21255;DHT22;10785;50.674;17.954;2023-02-28T11:01:57;3.70;1.00
21255;DHT22;10785;50.674;17.954;2023-02-28T11:04:34;3.80;1.00
21255;DHT22;10785;50.674;17.954;2023-02-28T11:07:11;3.90;1.00
21255;DHT22;10785;50.674;17.954;2023-02-28T11:09:50;4.00;1.00
21255;DHT22;10785;50.674;17.954;2023-02-28T11:12:26;4.20;1.00
21255;DHT22;10785;50.674;17.954;2023-02-28T11:14:57;4.30;1.00
21255;DHT22;10785;50.674;17.954;2023-02-28T11:17:28;4.40;1.00
21255;DHT22;10785;50.674;17.954;2023-02-28T11:19:59;4.40;1.00
21255;DHT22;10785;50.674;17.954;2023-02-28T11:22:32;4.50;1.00
21255;DHT22;10785;50.674;17.954;2023-02-28T11:25:07;4.30;1.00
21255;DHT22;10785;50.674;17.954;2023-02-28T11:27:46;4.30;1.00
21255;DHT22;10785;50.674;17.954;2023-02-28T11:30:31;4.40;1.00
21255;DHT22;10785;50.674;17.954;2023-02-28T11:33:01;4.40;1.00
21255;DHT22;10785;50.674;17.954;2023-02-28T11:35:34;4.60;1.00
21255;DHT22;10785;50.674;17.954;2023-02-28T11:38:07;4.60;1.00
21255;DHT22;10785;50.674;17.954;2023-02-28T11:40:43;4.40;1.00
21255;DHT22;10785;50.674;17.954;2023-02-28T11:43:30;4.40;1.00
21255;DHT22;10785;50.674;17.954;2023-02-28T11:46:18;4.50;1.00
21255;DHT22;10785;50.674;17.954;2023-02-28T11:48:56;4.50;1.00
21255;DHT22;10785;50.674;17.954;2023-02-28T11:51:30;4.40;1.00
21255;DHT22;10785;50.674;17.954;2023-02-28T11:54:17;4.20;1.00
21255;DHT22;10785;50.674;17.954;2023-02-28T11:56:53;4.30;1.00
21255;DHT22;10785;50.674;17.954;2023-02-28T11:59:37;4.30;1.00
21255;DHT22;10785;50.674;17.954;2023-02-28T12:02:23;4.20;1.00
21255;DHT22;10785;50.674;17.954;2023-02-28T12:05:04;4.10;1.00
21255;DHT22;10785;50.674;17.954;2023-02-28T12:07:47;4.00;1.00
21255;DHT22;10785;50.674;17.954;2023-02-28T12:10:22;4.00;1.00
21255;DHT22;10785;50.674;17.954;2023-02-28T12:13:05;3.70;1.00
21255;DHT22;10785;50.674;17.954;2023-02-28T12:18:51;3.60;1.00
21255;DHT22;10785;50.674;17.954;2023-02-28T12:21:28;3.70;1.00
21255;DHT22;10785;50.674;17.954;2023-02-28T12:24:13;3.80;1.00
21255;DHT22;10785;50.674;17.954;2023-02-28T12:26:45;3.80;1.00
21255;DHT22;10785;50.674;17.954;2023-02-28T12:29:19;3.80;1.00
21255;DHT22;10785;50.674;17.954;2023-02-28T12:31:54;3.80;1.00
21255;DHT22;10785;50.674;17.954;2023-02-28T12:34:28;3.90;1.00
21255;DHT22;10785;50.674;17.954;2023-02-28T12:37:03;4.00;1.00
21255;DHT22;10785;50.674;17.954;2023-02-28T12:39:36;4.00;1.00
21255;DHT22;10785;50.674;17.954;2023-02-28T12:42:19;3.90;1.00
21255;DHT22;10785;50.674;17.954;2023-02-28T12:44:54;3.80;1.00
21255;DHT22;10785;50.674;17.954;2023-02-28T12:47:25;4.00;1.00
21255;DHT22;10785;50.674;17.954;2023-02-28T12:49:56;3.90;1.00
21255;DHT22;10785;50.674;17.954;2023-02-28T12:52:34;4.10;1.00
21255;DHT22;10785;50.674;17.954;2023-02-28T12:55:08;4.10;1.00
21255;DHT22;10785;50.674;17.954;2023-02-28T12:57:45;4.10;1.00
21255;DHT22;10785;50.674;17.954;2023-02-28T13:00:16;4.30;1.00
21255;DHT22;10785;50.674;17.954;2023-02-28T13:03:03;4.20;1.00
21255;DHT22;10785;50.674;17.954;2023-02-28T13:05:56;4.10;1.00
21255;DHT22;10785;50.674;17.954;2023-02-28T13:09:01;4.20;1.00
21255;DHT22;10785;50.674;17.954;2023-02-28T13:11:32;4.50;1.00
21255;DHT22;10785;50.674;17.954;2023-02-28T13:14:04;4.50;1.00
21255;DHT22;10785;50.674;17.954;2023-02-28T13:16:54;4.50;1.00
21255;DHT22;10785;50.674;17.954;2023-02-28T13:19:27;4.40;1.00
21255;DHT22;10785;50.674;17.954;2023-02-28T13:21:57;4.50;1.00
21255;DHT22;10785;50.674;17.954;2023-02-28T13:24:53;4.50;1.00
21255;DHT22;10785;50.674;17.954;2023-02-28T13:27:31;4.10;1.00
21255;DHT22;10785;50.674;17.954;2023-02-28T13:30:01;4.10;99.90
21255;DHT22;10785;50.674;17.954;2023-02-28T13:32:34;4.10;99.90
21255;DHT22;10785;50.674;17.954;2023-02-28T13:38:36;4.20;99.90
21255;DHT22;10785;50.674;17.954;2023-02-28T13:41:42;4.50;1.00
21255;DHT22;10785;50.674;17.954;2023-02-28T13:44:13;4.50;1.00
21255;DHT22;10785;50.674;17.954;2023-02-28T13:50:21;4.60;1.00
21255;DHT22;10785;50.674;17.954;2023-02-28T13:55:48;4.40;99.90
21255;DHT22;10785;50.674;17.954;2023-02-28T13:58:46;4.50;99.90
21255;DHT22;10785;50.674;17.954;2023-02-28T14:01:36;4.50;99.90
21255;DHT22;10785;50.674;17.954;2023-02-28T14:07:25;4.40;99.90
21255;DHT22;10785;50.674;17.954;2023-02-28T14:09:59;4.50;99.90
21255;DHT22;10785;50.674;17.954;2023-02-28T14:12:53;4.60;99.90
21255;DHT22;10785;50.674;17.954;2023-02-28T14:15:39;4.60;99.90
21255;DHT22;10785;50.674;17.954;2023-02-28T14:18:22;4.60;99.90
21255;DHT22;10785;50.674;17.954;2023-02-28T14:21:01;4.70;99.90
21255;DHT22;10785;50.674;17.954;2023-02-28T14:26:57;4.60;99.90
21255;DHT22;10785;50.674;17.954;2023-02-28T14:29:43;4.50;99.90
21255;DHT22;10785;50.674;17.954;2023-02-28T14:32:26;4.40;99.90
21255;DHT22;10785;50.674;17.954;2023-02-28T14:35:05;4.50;99.90
21255;DHT22;10785;50.674;17.954;2023-02-28T14:37:41;4.50;99.90
21255;DHT22;10785;50.674;17.954;2023-02-28T14:40:19;4.40;99.90
21255;DHT22;10785;50.674;17.954;2023-02-28T14:42:55;4.40;99.90
21255;DHT22;10785;50.674;17.954;2023-02-28T14:45:29;4.40;99.90
21255;DHT22;10785;50.674;17.954;2023-02-28T14:47:59;4.40;99.90
21255;DHT22;10785;50.674;17.954;2023-02-28T14:50:31;4.40;99.90
21255;DHT22;10785;50.674;17.954;2023-02-28T14:53:01;4.40;99.90
21255;DHT22;10785;50.674;17.954;2023-02-28T14:55:34;4.40;99.90
21255;DHT22;10785;50.674;17.954;2023-02-28T14:58:05;4.40;99.90
21255;DHT22;10785;50.674;17.954;2023-02-28T15:00:35;4.40;99.90
21255;DHT22;10785;50.674;17.954;2023-02-28T15:03:18;4.40;99.90
21255;DHT22;10785;50.674;17.954;2023-02-28T15:05:54;4.40;99.90
21255;DHT22;10785;50.674;17.954;2023-02-28T15:08:25;4.40;99.90
21255;DHT22;10785;50.674;17.954;2023-02-28T15:11:02;4.30;99.90
21255;DHT22;10785;50.674;17.954;2023-02-28T15:13:36;4.30;99.90
21255;DHT22;10785;50.674;17.954;2023-02-28T15:16:09;4.20;99.90
21255;DHT22;10785;50.674;17.954;2023-02-28T15:18:44;4.10;99.90
21255;DHT22;10785;50.674;17.954;2023-02-28T15:24:36;4.10;99.90
21255;DHT22;10785;50.674;17.954;2023-02-28T15:27:10;4.10;99.90
21255;DHT22;10785;50.674;17.954;2023-02-28T15:29:45;4.00;99.90
21255;DHT22;10785;50.674;17.954;2023-02-28T15:32:24;4.00;99.90
21255;DHT22;10785;50.674;17.954;2023-02-28T15:34:55;3.90;99.90
21255;DHT22;10785;50.674;17.954;2023-02-28T15:37:31;3.90;99.90
21255;DHT22;10785;50.674;17.954;2023-02-28T15:40:12;3.80;99.90
21255;DHT22;10785;50.674;17.954;2023-02-28T15:42:43;3.80;99.90
21255;DHT22;10785;50.674;17.954;2023-02-28T15:45:28;3.80;99.90
21255;DHT22;10785;50.674;17.954;2023-02-28T15:47:57;3.80;99.90
21255;DHT22;10785;50.674;17.954;2023-02-28T15:50:40;3.70;99.90
21255;DHT22;10785;50.674;17.954;2023-02-28T15:53:48;3.70;99.90
21255;DHT22;10785;50.674;17.954;2023-02-28T15:56:23;3.60;99.90
21255;DHT22;10785;50.674;17.954;2023-02-28T15:58:55;3.60;99.90
21255;DHT22;10785;50.674;17.954;2023-02-28T16:01:26;3.60;99.90
21255;DHT22;10785;50.674;17.954;2023-02-28T16:04:00;3.50;99.90
21255;DHT22;10785;50.674;17.954;2023-02-28T16:06:34;3.50;99.90
21255;DHT22;10785;50.674;17.954;2023-02-28T16:09:05;3.40;99.90
21255;DHT22;10785;50.674;17.954;2023-02-28T16:11:38;3.30;99.90
21255;DHT22;10785;50.674;17.954;2023-02-28T16:14:18;3.30;99.90
21255;DHT22;10785;50.674;17.954;2023-02-28T16:16:51;3.20;99.90
21255;DHT22;10785;50.674;17.954;2023-02-28T16:19:21;3.10;99.90
21255;DHT22;10785;50.674;17.954;2023-02-28T16:21:50;3.10;99.90
21255;DHT22;10785;50.674;17.954;2023-02-28T16:24:18;3.00;99.90
21255;DHT22;10785;50.674;17.954;2023-02-28T16:26:48;3.00;99.90
21255;DHT22;10785;50.674;17.954;2023-02-28T16:29:24;2.90;99.90
21255;DHT22;10785;50.674;17.954;2023-02-28T16:31:54;2.90;99.90
21255;DHT22;10785;50.674;17.954;2023-02-28T16:34:23;2.90;99.90
21255;DHT22;10785;50.674;17.954;2023-02-28T16:36:52;2.80;99.90
21255;DHT22;10785;50.674;17.954;2023-02-28T16:39:20;2.70;99.90
21255;DHT22;10785;50.674;17.954;2023-02-28T16:41:50;2.60;99.90
21255;DHT22;10785;50.674;17.954;2023-02-28T16:44:27;2.50;99.90
21255;DHT22;10785;50.674;17.954;2023-02-28T16:46:56;2.50;99.90
21255;DHT22;10785;50.674;17.954;2023-02-28T16:49:25;2.40;99.90
21255;DHT22;10785;50.674;17.954;2023-02-28T16:51:54;2.40;99.90
21255;DHT22;10785;50.674;17.954;2023-02-28T16:54:22;2.30;99.90
21255;DHT22;10785;50.674;17.954;2023-02-28T16:56:51;2.30;99.90
21255;DHT22;10785;50.674;17.954;2023-02-28T16:59:23;2.30;99.90
21255;DHT22;10785;50.674;17.954;2023-02-28T17:01:53;2.20;99.90
21255;DHT22;10785;50.674;17.954;2023-02-28T17:04:23;2.20;99.90
21255;DHT22;10785;50.674;17.954;2023-02-28T17:06:52;2.10;99.90
21255;DHT22;10785;50.674;17.954;2023-02-28T17:09:22;2.10;99.90
21255;DHT22;10785;50.674;17.954;2023-02-28T17:12:08;2.00;99.90
21255;DHT22;10785;50.674;17.954;2023-02-28T17:14:39;1.90;99.90
21255;DHT22;10785;50.674;17.954;2023-02-28T17:17:10;1.90;99.90
21255;DHT22;10785;50.674;17.954;2023-02-28T17:19:44;1.80;99.90
21255;DHT22;10785;50.674;17.954;2023-02-28T17:22:12;1.80;99.90
21255;DHT22;10785;50.674;17.954;2023-02-28T17:24:41;1.70;99.90
21255;DHT22;10785;50.674;17.954;2023-02-28T17:27:12;1.60;99.90
21255;DHT22;10785;50.674;17.954;2023-02-28T17:29:42;1.60;99.90
21255;DHT22;10785;50.674;17.954;2023-02-28T17:32:11;1.60;99.90
21255;DHT22;10785;50.674;17.954;2023-02-28T17:34:45;1.50;99.90
21255;DHT22;10785;50.674;17.954;2023-02-28T17:37:14;1.50;99.90
21255;DHT22;10785;50.674;17.954;2023-02-28T17:39:42;1.40;99.90
21255;DHT22;10785;50.674;17.954;2023-02-28T17:42:11;1.40;99.90
21255;DHT22;10785;50.674;17.954;2023-02-28T17:44:39;1.40;99.90